sensor_id;sensor_type;location;lat;lon;timestamp;P1;durP1;ratioP1;P2;durP2;ratioP2
60492;SDS011;46341;51.290;-2.474;2023-06-14T00:02:13;34.15;;;24.70;;
60492;SDS011;46341;51.290;-2.474;2023-06-14T00:04:40;35.17;;;26.10;;
60492;SDS011;46341;51.290;-2.474;2023-06-14T00:07:07;19.50;;;15.65;;
60492;SDS011;46341;51.290;-2.474;2023-06-14T00:09:36;18.85;;;16.58;;
60492;SDS011;46341;51.290;-2.474;2023-06-14T00:12:03;16.80;;;12.85;;
60492;SDS011;46341;51.290;-2.474;2023-06-14T00:14:32;32.80;;;24.58;;
60492;SDS011;46341;51.290;-2.474;2023-06-14T00:16:58;30.08;;;22.40;;
60492;SDS011;46341;51.290;-2.474;2023-06-14T00:19:25;22.53;;;16.73;;
60492;SDS011;46341;51.290;-2.474;2023-06-14T00:21:52;22.70;;;18.52;;
60492;SDS011;46341;51.290;-2.474;2023-06-14T00:24:19;220.30;;;187.75;;
60492;SDS011;46341;51.290;-2.474;2023-06-14T00:26:46;593.67;;;431.80;;
60492;SDS011;46341;51.290;-2.474;2023-06-14T00:29:13;657.72;;;499.25;;
60492;SDS011;46341;51.290;-2.474;2023-06-14T00:31:39;849.03;;;597.67;;
60492;SDS011;46341;51.290;-2.474;2023-06-14T00:34:06;827.60;;;579.58;;
60492;SDS011;46341;51.290;-2.474;2023-06-14T00:36:32;960.75;;;634.95;;
60492;SDS011;46341;51.290;-2.474;2023-06-14T00:38:59;824.60;;;569.50;;
60492;SDS011;46341;51.290;-2.474;2023-06-14T00:41:25;721.22;;;518.00;;
60492;SDS011;46341;51.290;-2.474;2023-06-14T00:46:22;915.08;;;613.53;;
60492;SDS011;46341;51.290;-2.474;2023-06-14T00:48:48;882.15;;;593.00;;
60492;SDS011;46341;51.290;-2.474;2023-06-14T00:51:15;796.20;;;559.33;;
60492;SDS011;46341;51.290;-2.474;2023-06-14T00:53:41;449.70;;;304.80;;
60492;SDS011;46341;51.290;-2.474;2023-06-14T00:56:13;569.10;;;390.83;;
60492;SDS011;46341;51.290;-2.474;2023-06-14T00:58:39;511.10;;;354.52;;
60492;SDS011;46341;51.290;-2.474;2023-06-14T01:01:06;478.52;;;329.35;;
60492;SDS011;46341;51.290;-2.474;2023-06-14T01:03:32;778.85;;;555.42;;
60492;SDS011;46341;51.290;-2.474;2023-06-14T01:06:03;696.83;;;510.25;;
60492;SDS011;46341;51.290;-2.474;2023-06-14T01:08:37;855.67;;;615.25;;
60492;SDS011;46341;51.290;-2.474;2023-06-14T01:11:12;777.75;;;581.58;;
60492;SDS011;46341;51.290;-2.474;2023-06-14T01:13:42;542.53;;;439.48;;
60492;SDS011;46341;51.290;-2.474;2023-06-14T01:16:09;525.03;;;424.30;;
60492;SDS011;46341;51.290;-2.474;2023-06-14T01:18:36;281.10;;;228.23;;
60492;SDS011;46341;51.290;-2.474;2023-06-14T01:21:03;585.75;;;479.45;;
60492;SDS011;46341;51.290;-2.474;2023-06-14T01:23:32;572.22;;;471.23;;
60492;SDS011;46341;51.290;-2.474;2023-06-14T01:25:59;544.22;;;434.50;;
60492;SDS011;46341;51.290;-2.474;2023-06-14T01:28:30;391.48;;;299.55;;
60492;SDS011;46341;51.290;-2.474;2023-06-14T01:30:59;290.83;;;231.65;;
60492;SDS011;46341;51.290;-2.474;2023-06-14T01:33:26;343.33;;;264.70;;
60492;SDS011;46341;51.290;-2.474;2023-06-14T01:35:53;336.30;;;259.25;;
60492;SDS011;46341;51.290;-2.474;2023-06-14T01:40:47;929.47;;;550.70;;
60492;SDS011;46341;51.290;-2.474;2023-06-14T01:43:14;1003.83;;;588.33;;
60492;SDS011;46341;51.290;-2.474;2023-06-14T01:45:42;943.60;;;574.63;;
60492;SDS011;46341;51.290;-2.474;2023-06-14T01:48:09;893.63;;;550.92;;
60492;SDS011;46341;51.290;-2.474;2023-06-14T01:50:35;750.70;;;492.70;;
60492;SDS011;46341;51.290;-2.474;2023-06-14T01:53:02;700.35;;;449.60;;
60492;SDS011;46341;51.290;-2.474;2023-06-14T01:55:28;591.45;;;421.70;;
60492;SDS011;46341;51.290;-2.474;2023-06-14T01:57:55;571.88;;;422.67;;
60492;SDS011;46341;51.290;-2.474;2023-06-14T02:00:22;524.25;;;384.92;;
60492;SDS011;46341;51.290;-2.474;2023-06-14T02:02:48;486.02;;;357.65;;
60492;SDS011;46341;51.290;-2.474;2023-06-14T02:05:15;466.70;;;342.80;;
60492;SDS011;46341;51.290;-2.474;2023-06-14T02:07:45;499.63;;;370.88;;
60492;SDS011;46341;51.290;-2.474;2023-06-14T02:10:13;538.78;;;399.50;;
60492;SDS011;46341;51.290;-2.474;2023-06-14T02:15:06;618.17;;;456.02;;
60492;SDS011;46341;51.290;-2.474;2023-06-14T02:17:33;654.90;;;478.00;;
60492;SDS011;46341;51.290;-2.474;2023-06-14T02:20:00;664.10;;;500.20;;
60492;SDS011;46341;51.290;-2.474;2023-06-14T02:22:27;593.80;;;453.77;;
60492;SDS011;46341;51.290;-2.474;2023-06-14T02:24:53;594.92;;;460.67;;
60492;SDS011;46341;51.290;-2.474;2023-06-14T02:27:27;577.03;;;454.10;;
60492;SDS011;46341;51.290;-2.474;2023-06-14T02:29:54;504.60;;;409.55;;
60492;SDS011;46341;51.290;-2.474;2023-06-14T02:32:20;490.92;;;395.88;;
60492;SDS011;46341;51.290;-2.474;2023-06-14T02:34:47;462.35;;;362.10;;
60492;SDS011;46341;51.290;-2.474;2023-06-14T02:37:16;411.23;;;323.95;;
60492;SDS011;46341;51.290;-2.474;2023-06-14T02:39:42;326.53;;;255.70;;
60492;SDS011;46341;51.290;-2.474;2023-06-14T02:42:09;198.77;;;160.68;;
60492;SDS011;46341;51.290;-2.474;2023-06-14T02:44:36;183.40;;;139.27;;
60492;SDS011;46341;51.290;-2.474;2023-06-14T02:47:03;190.65;;;142.70;;
60492;SDS011;46341;51.290;-2.474;2023-06-14T02:49:30;291.92;;;226.73;;
60492;SDS011;46341;51.290;-2.474;2023-06-14T02:51:56;358.15;;;290.92;;
60492;SDS011;46341;51.290;-2.474;2023-06-14T02:54:23;281.48;;;234.13;;
60492;SDS011;46341;51.290;-2.474;2023-06-14T02:56:49;344.77;;;292.45;;
60492;SDS011;46341;51.290;-2.474;2023-06-14T02:59:16;297.40;;;260.83;;
60492;SDS011;46341;51.290;-2.474;2023-06-14T03:01:43;64.97;;;53.17;;
60492;SDS011;46341;51.290;-2.474;2023-06-14T03:04:09;22.33;;;18.42;;
60492;SDS011;46341;51.290;-2.474;2023-06-14T03:06:36;14.60;;;13.20;;
60492;SDS011;46341;51.290;-2.474;2023-06-14T03:09:03;13.30;;;10.80;;
60492;SDS011;46341;51.290;-2.474;2023-06-14T03:11:33;11.93;;;10.73;;
60492;SDS011;46341;51.290;-2.474;2023-06-14T03:14:00;12.63;;;11.40;;
60492;SDS011;46341;51.290;-2.474;2023-06-14T03:16:26;53.42;;;48.10;;
60492;SDS011;46341;51.290;-2.474;2023-06-14T03:18:56;174.75;;;157.15;;
60492;SDS011;46341;51.290;-2.474;2023-06-14T03:21:22;153.77;;;138.35;;
60492;SDS011;46341;51.290;-2.474;2023-06-14T03:23:49;108.57;;;97.65;;
60492;SDS011;46341;51.290;-2.474;2023-06-14T03:26:15;114.75;;;103.53;;
60492;SDS011;46341;51.290;-2.474;2023-06-14T03:28:47;187.30;;;168.80;;
60492;SDS011;46341;51.290;-2.474;2023-06-14T03:31:14;171.73;;;154.45;;
60492;SDS011;46341;51.290;-2.474;2023-06-14T03:33:42;112.38;;;101.05;;
60492;SDS011;46341;51.290;-2.474;2023-06-14T03:36:09;100.68;;;90.57;;
60492;SDS011;46341;51.290;-2.474;2023-06-14T03:38:36;91.28;;;82.28;;
60492;SDS011;46341;51.290;-2.474;2023-06-14T03:41:02;82.00;;;73.70;;
60492;SDS011;46341;51.290;-2.474;2023-06-14T03:43:28;61.40;;;55.33;;
60492;SDS011;46341;51.290;-2.474;2023-06-14T03:45:56;38.90;;;34.83;;
60492;SDS011;46341;51.290;-2.474;2023-06-14T03:48:23;32.70;;;28.27;;
60492;SDS011;46341;51.290;-2.474;2023-06-14T03:50:49;29.83;;;26.63;;
60492;SDS011;46341;51.290;-2.474;2023-06-14T03:53:16;24.02;;;21.25;;
60492;SDS011;46341;51.290;-2.474;2023-06-14T03:55:43;23.85;;;19.48;;
60492;SDS011;46341;51.290;-2.474;2023-06-14T03:58:12;20.55;;;18.33;;
60492;SDS011;46341;51.290;-2.474;2023-06-14T04:00:39;19.00;;;16.95;;
60492;SDS011;46341;51.290;-2.474;2023-06-14T04:03:06;16.88;;;14.80;;
60492;SDS011;46341;51.290;-2.474;2023-06-14T04:05:33;13.75;;;12.32;;
60492;SDS011;46341;51.290;-2.474;2023-06-14T04:07:59;14.52;;;11.88;;
60492;SDS011;46341;51.290;-2.474;2023-06-14T04:10:27;13.95;;;10.68;;
60492;SDS011;46341;51.290;-2.474;2023-06-14T04:12:54;11.13;;;9.70;;
60492;SDS011;46341;51.290;-2.474;2023-06-14T04:15:20;10.98;;;9.93;;
60492;SDS011;46341;51.290;-2.474;2023-06-14T04:17:47;11.15;;;9.50;;
60492;SDS011;46341;51.290;-2.474;2023-06-14T04:20:14;12.80;;;10.45;;
60492;SDS011;46341;51.290;-2.474;2023-06-14T04:22:41;12.48;;;11.18;;
60492;SDS011;46341;51.290;-2.474;2023-06-14T04:25:09;11.25;;;9.57;;
60492;SDS011;46341;51.290;-2.474;2023-06-14T04:27:37;12.15;;;9.60;;
60492;SDS011;46341;51.290;-2.474;2023-06-14T04:30:04;11.55;;;9.55;;
60492;SDS011;46341;51.290;-2.474;2023-06-14T04:32:32;9.98;;;8.52;;
60492;SDS011;46341;51.290;-2.474;2023-06-14T04:35:06;13.32;;;8.77;;
60492;SDS011;46341;51.290;-2.474;2023-06-14T04:37:33;16.75;;;9.15;;
60492;SDS011;46341;51.290;-2.474;2023-06-14T04:39:59;9.85;;;8.85;;
60492;SDS011;46341;51.290;-2.474;2023-06-14T04:42:26;12.48;;;8.40;;
60492;SDS011;46341;51.290;-2.474;2023-06-14T04:44:57;13.00;;;7.43;;
60492;SDS011;46341;51.290;-2.474;2023-06-14T04:47:23;9.18;;;7.00;;
60492;SDS011;46341;51.290;-2.474;2023-06-14T04:49:58;7.85;;;6.43;;
60492;SDS011;46341;51.290;-2.474;2023-06-14T04:52:27;8.50;;;5.80;;
60492;SDS011;46341;51.290;-2.474;2023-06-14T04:54:56;5.22;;;4.72;;
60492;SDS011;46341;51.290;-2.474;2023-06-14T04:57:22;8.27;;;5.57;;
60492;SDS011;46341;51.290;-2.474;2023-06-14T04:59:51;6.03;;;5.07;;
60492;SDS011;46341;51.290;-2.474;2023-06-14T05:02:24;6.57;;;4.72;;
60492;SDS011;46341;51.290;-2.474;2023-06-14T05:04:51;5.45;;;4.15;;
60492;SDS011;46341;51.290;-2.474;2023-06-14T05:07:18;5.13;;;4.28;;
60492;SDS011;46341;51.290;-2.474;2023-06-14T05:09:45;5.63;;;4.20;;
60492;SDS011;46341;51.290;-2.474;2023-06-14T05:12:12;5.20;;;4.30;;
60492;SDS011;46341;51.290;-2.474;2023-06-14T05:14:38;6.78;;;4.15;;
60492;SDS011;46341;51.290;-2.474;2023-06-14T05:17:05;7.15;;;3.75;;
60492;SDS011;46341;51.290;-2.474;2023-06-14T05:19:32;6.17;;;4.23;;
60492;SDS011;46341;51.290;-2.474;2023-06-14T05:21:58;6.55;;;3.72;;
60492;SDS011;46341;51.290;-2.474;2023-06-14T05:24:25;7.47;;;3.90;;
60492;SDS011;46341;51.290;-2.474;2023-06-14T05:26:52;7.35;;;3.65;;
60492;SDS011;46341;51.290;-2.474;2023-06-14T05:29:19;6.03;;;4.35;;
60492;SDS011;46341;51.290;-2.474;2023-06-14T05:31:45;7.57;;;4.27;;
60492;SDS011;46341;51.290;-2.474;2023-06-14T05:34:11;7.13;;;4.13;;
60492;SDS011;46341;51.290;-2.474;2023-06-14T05:36:38;6.75;;;4.10;;
60492;SDS011;46341;51.290;-2.474;2023-06-14T05:39:05;9.00;;;4.40;;
60492;SDS011;46341;51.290;-2.474;2023-06-14T05:43:59;10.15;;;4.95;;
60492;SDS011;46341;51.290;-2.474;2023-06-14T05:46:26;6.97;;;4.60;;
60492;SDS011;46341;51.290;-2.474;2023-06-14T05:48:53;8.82;;;4.22;;
60492;SDS011;46341;51.290;-2.474;2023-06-14T05:51:20;6.70;;;4.10;;
60492;SDS011;46341;51.290;-2.474;2023-06-14T05:53:47;6.93;;;4.53;;
60492;SDS011;46341;51.290;-2.474;2023-06-14T05:56:14;8.93;;;4.10;;
60492;SDS011;46341;51.290;-2.474;2023-06-14T05:58:41;7.73;;;4.20;;
60492;SDS011;46341;51.290;-2.474;2023-06-14T06:01:07;9.02;;;3.90;;
60492;SDS011;46341;51.290;-2.474;2023-06-14T06:03:34;7.63;;;3.50;;
60492;SDS011;46341;51.290;-2.474;2023-06-14T06:06:00;6.30;;;4.27;;
60492;SDS011;46341;51.290;-2.474;2023-06-14T06:08:27;5.47;;;4.30;;
60492;SDS011;46341;51.290;-2.474;2023-06-14T06:10:54;7.20;;;4.53;;
60492;SDS011;46341;51.290;-2.474;2023-06-14T06:13:20;6.03;;;3.85;;
60492;SDS011;46341;51.290;-2.474;2023-06-14T06:15:47;6.63;;;3.92;;
60492;SDS011;46341;51.290;-2.474;2023-06-14T06:18:13;7.38;;;4.28;;
60492;SDS011;46341;51.290;-2.474;2023-06-14T06:20:40;5.35;;;3.42;;
60492;SDS011;46341;51.290;-2.474;2023-06-14T06:23:06;6.90;;;3.50;;
60492;SDS011;46341;51.290;-2.474;2023-06-14T06:28:00;6.33;;;3.70;;
60492;SDS011;46341;51.290;-2.474;2023-06-14T06:30:27;4.68;;;3.85;;
60492;SDS011;46341;51.290;-2.474;2023-06-14T06:32:54;4.28;;;3.30;;
60492;SDS011;46341;51.290;-2.474;2023-06-14T06:35:22;4.63;;;3.67;;
60492;SDS011;46341;51.290;-2.474;2023-06-14T06:37:48;8.38;;;4.05;;
60492;SDS011;46341;51.290;-2.474;2023-06-14T06:40:15;7.63;;;4.20;;
60492;SDS011;46341;51.290;-2.474;2023-06-14T06:42:41;6.17;;;3.60;;
60492;SDS011;46341;51.290;-2.474;2023-06-14T06:45:08;5.95;;;3.50;;
60492;SDS011;46341;51.290;-2.474;2023-06-14T06:47:35;5.40;;;3.13;;
60492;SDS011;46341;51.290;-2.474;2023-06-14T06:50:01;7.82;;;3.47;;
60492;SDS011;46341;51.290;-2.474;2023-06-14T06:52:28;5.50;;;3.75;;
60492;SDS011;46341;51.290;-2.474;2023-06-14T06:54:55;5.75;;;3.60;;
60492;SDS011;46341;51.290;-2.474;2023-06-14T06:57:22;6.28;;;3.60;;
60492;SDS011;46341;51.290;-2.474;2023-06-14T06:59:50;6.72;;;3.58;;
60492;SDS011;46341;51.290;-2.474;2023-06-14T07:02:16;7.27;;;4.10;;
60492;SDS011;46341;51.290;-2.474;2023-06-14T07:04:43;8.75;;;3.78;;
60492;SDS011;46341;51.290;-2.474;2023-06-14T07:07:10;5.05;;;3.30;;
60492;SDS011;46341;51.290;-2.474;2023-06-14T07:09:36;6.63;;;3.65;;
60492;SDS011;46341;51.290;-2.474;2023-06-14T07:12:03;6.63;;;3.45;;
60492;SDS011;46341;51.290;-2.474;2023-06-14T07:14:29;5.90;;;3.27;;
60492;SDS011;46341;51.290;-2.474;2023-06-14T07:16:56;6.43;;;3.13;;
60492;SDS011;46341;51.290;-2.474;2023-06-14T07:19:22;5.45;;;2.88;;
60492;SDS011;46341;51.290;-2.474;2023-06-14T07:21:49;4.32;;;3.20;;
60492;SDS011;46341;51.290;-2.474;2023-06-14T07:24:15;9.50;;;3.20;;
60492;SDS011;46341;51.290;-2.474;2023-06-14T07:26:42;8.37;;;3.27;;
60492;SDS011;46341;51.290;-2.474;2023-06-14T07:29:08;5.22;;;2.92;;
60492;SDS011;46341;51.290;-2.474;2023-06-14T07:31:35;6.03;;;2.92;;
60492;SDS011;46341;51.290;-2.474;2023-06-14T07:34:01;6.45;;;2.90;;
60492;SDS011;46341;51.290;-2.474;2023-06-14T07:36:28;5.70;;;3.30;;
60492;SDS011;46341;51.290;-2.474;2023-06-14T07:38:54;4.80;;;3.00;;
60492;SDS011;46341;51.290;-2.474;2023-06-14T07:41:21;5.87;;;3.50;;
60492;SDS011;46341;51.290;-2.474;2023-06-14T07:43:48;5.53;;;2.78;;
60492;SDS011;46341;51.290;-2.474;2023-06-14T07:46:14;8.13;;;3.33;;
60492;SDS011;46341;51.290;-2.474;2023-06-14T07:48:41;4.93;;;2.93;;
60492;SDS011;46341;51.290;-2.474;2023-06-14T07:51:07;4.50;;;2.77;;
60492;SDS011;46341;51.290;-2.474;2023-06-14T07:53:34;6.95;;;3.00;;
60492;SDS011;46341;51.290;-2.474;2023-06-14T07:56:00;3.70;;;2.93;;
60492;SDS011;46341;51.290;-2.474;2023-06-14T07:58:27;3.75;;;2.63;;
60492;SDS011;46341;51.290;-2.474;2023-06-14T08:00:53;6.23;;;2.90;;
60492;SDS011;46341;51.290;-2.474;2023-06-14T08:03:20;3.60;;;2.27;;
60492;SDS011;46341;51.290;-2.474;2023-06-14T08:05:46;5.00;;;3.00;;
60492;SDS011;46341;51.290;-2.474;2023-06-14T08:08:13;7.80;;;3.60;;
60492;SDS011;46341;51.290;-2.474;2023-06-14T08:10:40;4.07;;;2.75;;
60492;SDS011;46341;51.290;-2.474;2023-06-14T08:13:06;5.30;;;2.40;;
60492;SDS011;46341;51.290;-2.474;2023-06-14T08:15:32;4.40;;;2.90;;
60492;SDS011;46341;51.290;-2.474;2023-06-14T08:18:00;3.97;;;2.85;;
60492;SDS011;46341;51.290;-2.474;2023-06-14T08:20:27;4.30;;;2.20;;
60492;SDS011;46341;51.290;-2.474;2023-06-14T08:22:54;2.95;;;2.47;;
60492;SDS011;46341;51.290;-2.474;2023-06-14T08:25:23;3.67;;;2.75;;
60492;SDS011;46341;51.290;-2.474;2023-06-14T08:27:49;4.53;;;2.47;;
60492;SDS011;46341;51.290;-2.474;2023-06-14T08:30:16;4.05;;;2.03;;
60492;SDS011;46341;51.290;-2.474;2023-06-14T08:32:44;5.45;;;2.50;;
60492;SDS011;46341;51.290;-2.474;2023-06-14T08:35:11;4.35;;;1.88;;
60492;SDS011;46341;51.290;-2.474;2023-06-14T08:37:39;4.10;;;2.10;;
60492;SDS011;46341;51.290;-2.474;2023-06-14T08:40:12;4.65;;;1.98;;
60492;SDS011;46341;51.290;-2.474;2023-06-14T08:42:40;3.60;;;2.08;;
60492;SDS011;46341;51.290;-2.474;2023-06-14T08:47:34;5.80;;;2.30;;
60492;SDS011;46341;51.290;-2.474;2023-06-14T08:50:07;5.32;;;2.20;;
60492;SDS011;46341;51.290;-2.474;2023-06-14T08:52:56;4.40;;;2.40;;
60492;SDS011;46341;51.290;-2.474;2023-06-14T08:55:23;5.57;;;2.42;;
60492;SDS011;46341;51.290;-2.474;2023-06-14T08:58:01;3.75;;;1.90;;
60492;SDS011;46341;51.290;-2.474;2023-06-14T09:00:30;4.55;;;2.40;;
60492;SDS011;46341;51.290;-2.474;2023-06-14T09:02:57;4.05;;;2.00;;
60492;SDS011;46341;51.290;-2.474;2023-06-14T09:05:24;4.13;;;2.38;;
60492;SDS011;46341;51.290;-2.474;2023-06-14T09:10:18;5.28;;;2.22;;
60492;SDS011;46341;51.290;-2.474;2023-06-14T09:12:46;4.85;;;2.10;;
60492;SDS011;46341;51.290;-2.474;2023-06-14T09:17:40;3.25;;;2.10;;
60492;SDS011;46341;51.290;-2.474;2023-06-14T09:20:08;2.83;;;1.98;;
60492;SDS011;46341;51.290;-2.474;2023-06-14T09:22:40;3.40;;;2.35;;
60492;SDS011;46341;51.290;-2.474;2023-06-14T09:25:07;2.65;;;2.33;;
60492;SDS011;46341;51.290;-2.474;2023-06-14T09:27:34;3.70;;;2.00;;
60492;SDS011;46341;51.290;-2.474;2023-06-14T09:30:05;4.03;;;2.13;;
60492;SDS011;46341;51.290;-2.474;2023-06-14T09:32:35;2.33;;;1.90;;
60492;SDS011;46341;51.290;-2.474;2023-06-14T09:35:02;3.33;;;2.60;;
60492;SDS011;46341;51.290;-2.474;2023-06-14T09:37:29;3.88;;;2.53;;
60492;SDS011;46341;51.290;-2.474;2023-06-14T09:39:57;2.70;;;1.88;;
60492;SDS011;46341;51.290;-2.474;2023-06-14T09:42:23;3.45;;;1.95;;
60492;SDS011;46341;51.290;-2.474;2023-06-14T09:44:52;2.58;;;1.98;;
60492;SDS011;46341;51.290;-2.474;2023-06-14T09:47:20;3.47;;;1.80;;
60492;SDS011;46341;51.290;-2.474;2023-06-14T09:49:47;2.58;;;1.90;;
60492;SDS011;46341;51.290;-2.474;2023-06-14T09:52:15;2.50;;;1.95;;
60492;SDS011;46341;51.290;-2.474;2023-06-14T09:54:43;2.58;;;1.80;;
60492;SDS011;46341;51.290;-2.474;2023-06-14T09:57:10;2.80;;;1.92;;
60492;SDS011;46341;51.290;-2.474;2023-06-14T09:59:41;2.95;;;1.90;;
60492;SDS011;46341;51.290;-2.474;2023-06-14T10:04:46;2.90;;;2.00;;
60492;SDS011;46341;51.290;-2.474;2023-06-14T10:07:14;2.97;;;2.20;;
60492;SDS011;46341;51.290;-2.474;2023-06-14T10:09:45;1.90;;;1.70;;
60492;SDS011;46341;51.290;-2.474;2023-06-14T10:12:16;2.72;;;2.00;;
60492;SDS011;46341;51.290;-2.474;2023-06-14T10:14:48;2.25;;;1.65;;
60492;SDS011;46341;51.290;-2.474;2023-06-14T10:17:24;2.25;;;1.80;;
60492;SDS011;46341;51.290;-2.474;2023-06-14T10:19:56;2.15;;;1.75;;
60492;SDS011;46341;51.290;-2.474;2023-06-14T10:22:34;3.65;;;1.90;;
60492;SDS011;46341;51.290;-2.474;2023-06-14T10:25:02;1.92;;;1.80;;
60492;SDS011;46341;51.290;-2.474;2023-06-14T10:27:28;3.03;;;1.95;;
60492;SDS011;46341;51.290;-2.474;2023-06-14T10:32:24;2.17;;;1.65;;
60492;SDS011;46341;51.290;-2.474;2023-06-14T10:35:01;2.35;;;1.83;;
60492;SDS011;46341;51.290;-2.474;2023-06-14T10:37:27;3.42;;;1.55;;
60492;SDS011;46341;51.290;-2.474;2023-06-14T10:39:54;2.83;;;1.70;;
60492;SDS011;46341;51.290;-2.474;2023-06-14T10:42:21;1.83;;;1.70;;
60492;SDS011;46341;51.290;-2.474;2023-06-14T10:44:53;2.38;;;1.88;;
60492;SDS011;46341;51.290;-2.474;2023-06-14T10:47:32;2.70;;;1.80;;
60492;SDS011;46341;51.290;-2.474;2023-06-14T10:52:28;4.07;;;2.05;;
60492;SDS011;46341;51.290;-2.474;2023-06-14T10:54:56;1.77;;;1.67;;
60492;SDS011;46341;51.290;-2.474;2023-06-14T10:57:22;3.63;;;2.00;;
60492;SDS011;46341;51.290;-2.474;2023-06-14T10:59:50;2.03;;;1.73;;
60492;SDS011;46341;51.290;-2.474;2023-06-14T11:04:49;3.22;;;1.80;;
60492;SDS011;46341;51.290;-2.474;2023-06-14T11:07:26;3.40;;;1.90;;
60492;SDS011;46341;51.290;-2.474;2023-06-14T11:10:10;3.58;;;2.03;;
60492;SDS011;46341;51.290;-2.474;2023-06-14T11:12:38;2.28;;;1.90;;
60492;SDS011;46341;51.290;-2.474;2023-06-14T11:15:06;3.80;;;1.88;;
60492;SDS011;46341;51.290;-2.474;2023-06-14T11:17:32;2.88;;;1.77;;
60492;SDS011;46341;51.290;-2.474;2023-06-14T11:20:12;1.77;;;1.60;;
60492;SDS011;46341;51.290;-2.474;2023-06-14T11:22:44;3.13;;;1.63;;
60492;SDS011;46341;51.290;-2.474;2023-06-14T11:25:14;2.13;;;1.92;;
60492;SDS011;46341;51.290;-2.474;2023-06-14T11:27:41;2.80;;;1.92;;
60492;SDS011;46341;51.290;-2.474;2023-06-14T11:30:08;2.10;;;1.90;;
60492;SDS011;46341;51.290;-2.474;2023-06-14T11:32:39;3.45;;;2.28;;
60492;SDS011;46341;51.290;-2.474;2023-06-14T11:35:06;3.83;;;1.95;;
60492;SDS011;46341;51.290;-2.474;2023-06-14T11:37:33;2.90;;;2.00;;
60492;SDS011;46341;51.290;-2.474;2023-06-14T11:39:59;2.90;;;2.33;;
60492;SDS011;46341;51.290;-2.474;2023-06-14T11:42:26;2.45;;;1.98;;
60492;SDS011;46341;51.290;-2.474;2023-06-14T11:44:53;2.47;;;1.85;;
60492;SDS011;46341;51.290;-2.474;2023-06-14T11:47:37;2.20;;;2.05;;
60492;SDS011;46341;51.290;-2.474;2023-06-14T11:50:05;2.35;;;2.15;;
60492;SDS011;46341;51.290;-2.474;2023-06-14T11:52:32;4.80;;;2.42;;
60492;SDS011;46341;51.290;-2.474;2023-06-14T11:54:59;2.53;;;2.30;;
60492;SDS011;46341;51.290;-2.474;2023-06-14T11:57:25;2.35;;;2.13;;
60492;SDS011;46341;51.290;-2.474;2023-06-14T11:59:52;3.67;;;2.45;;
60492;SDS011;46341;51.290;-2.474;2023-06-14T12:02:19;3.38;;;2.30;;
60492;SDS011;46341;51.290;-2.474;2023-06-14T12:04:49;2.40;;;2.10;;
60492;SDS011;46341;51.290;-2.474;2023-06-14T12:07:16;1.95;;;1.85;;
60492;SDS011;46341;51.290;-2.474;2023-06-14T12:12:22;3.03;;;2.33;;
60492;SDS011;46341;51.290;-2.474;2023-06-14T12:14:51;2.47;;;2.28;;
60492;SDS011;46341;51.290;-2.474;2023-06-14T12:17:18;2.40;;;2.20;;
60492;SDS011;46341;51.290;-2.474;2023-06-14T12:19:45;2.20;;;2.10;;
60492;SDS011;46341;51.290;-2.474;2023-06-14T12:22:12;2.55;;;1.92;;
60492;SDS011;46341;51.290;-2.474;2023-06-14T12:24:42;2.65;;;2.35;;
60492;SDS011;46341;51.290;-2.474;2023-06-14T12:27:08;2.50;;;2.30;;
60492;SDS011;46341;51.290;-2.474;2023-06-14T12:29:37;3.00;;;2.70;;
60492;SDS011;46341;51.290;-2.474;2023-06-14T12:32:04;2.85;;;2.65;;
60492;SDS011;46341;51.290;-2.474;2023-06-14T12:34:31;2.60;;;2.40;;
60492;SDS011;46341;51.290;-2.474;2023-06-14T12:36:57;2.58;;;2.38;;
60492;SDS011;46341;51.290;-2.474;2023-06-14T12:39:23;2.75;;;2.10;;
60492;SDS011;46341;51.290;-2.474;2023-06-14T12:41:50;3.28;;;2.53;;
60492;SDS011;46341;51.290;-2.474;2023-06-14T12:44:17;2.58;;;2.38;;
60492;SDS011;46341;51.290;-2.474;2023-06-14T12:46:43;3.45;;;2.72;;
60492;SDS011;46341;51.290;-2.474;2023-06-14T12:49:11;3.00;;;2.50;;
60492;SDS011;46341;51.290;-2.474;2023-06-14T12:51:38;2.78;;;2.58;;
60492;SDS011;46341;51.290;-2.474;2023-06-14T12:54:05;2.70;;;2.50;;
60492;SDS011;46341;51.290;-2.474;2023-06-14T12:56:31;2.72;;;2.50;;
60492;SDS011;46341;51.290;-2.474;2023-06-14T12:58:58;2.72;;;2.30;;
60492;SDS011;46341;51.290;-2.474;2023-06-14T13:01:24;2.95;;;2.22;;
60492;SDS011;46341;51.290;-2.474;2023-06-14T13:03:51;3.92;;;2.40;;
60492;SDS011;46341;51.290;-2.474;2023-06-14T13:06:20;2.50;;;2.30;;
60492;SDS011;46341;51.290;-2.474;2023-06-14T13:08:47;2.97;;;2.42;;
60492;SDS011;46341;51.290;-2.474;2023-06-14T13:11:13;5.00;;;2.53;;
60492;SDS011;46341;51.290;-2.474;2023-06-14T13:13:40;4.10;;;2.50;;
60492;SDS011;46341;51.290;-2.474;2023-06-14T13:16:07;2.50;;;2.30;;
60492;SDS011;46341;51.290;-2.474;2023-06-14T13:18:33;4.57;;;2.67;;
60492;SDS011;46341;51.290;-2.474;2023-06-14T13:21:00;3.28;;;2.10;;
60492;SDS011;46341;51.290;-2.474;2023-06-14T13:23:27;4.18;;;2.72;;
60492;SDS011;46341;51.290;-2.474;2023-06-14T13:25:54;3.60;;;2.58;;
60492;SDS011;46341;51.290;-2.474;2023-06-14T13:28:20;2.83;;;2.63;;
60492;SDS011;46341;51.290;-2.474;2023-06-14T13:30:47;3.53;;;2.10;;
60492;SDS011;46341;51.290;-2.474;2023-06-14T13:33:14;5.05;;;2.55;;
60492;SDS011;46341;51.290;-2.474;2023-06-14T13:35:40;2.85;;;2.58;;
60492;SDS011;46341;51.290;-2.474;2023-06-14T13:38:08;5.25;;;2.47;;
60492;SDS011;46341;51.290;-2.474;2023-06-14T13:40:34;2.78;;;2.45;;
60492;SDS011;46341;51.290;-2.474;2023-06-14T13:43:01;2.70;;;2.50;;
60492;SDS011;46341;51.290;-2.474;2023-06-14T13:45:27;2.78;;;2.58;;
60492;SDS011;46341;51.290;-2.474;2023-06-14T13:47:54;5.25;;;2.40;;
60492;SDS011;46341;51.290;-2.474;2023-06-14T13:50:21;3.85;;;2.42;;
60492;SDS011;46341;51.290;-2.474;2023-06-14T13:52:47;3.90;;;2.50;;
60492;SDS011;46341;51.290;-2.474;2023-06-14T13:55:14;3.33;;;2.40;;
60492;SDS011;46341;51.290;-2.474;2023-06-14T13:57:40;3.08;;;2.40;;
60492;SDS011;46341;51.290;-2.474;2023-06-14T14:00:07;7.28;;;6.68;;
60492;SDS011;46341;51.290;-2.474;2023-06-14T14:02:35;3.45;;;2.50;;
60492;SDS011;46341;51.290;-2.474;2023-06-14T14:05:01;2.28;;;2.08;;
60492;SDS011;46341;51.290;-2.474;2023-06-14T14:07:28;3.72;;;2.42;;
60492;SDS011;46341;51.290;-2.474;2023-06-14T14:09:56;3.00;;;2.70;;
60492;SDS011;46341;51.290;-2.474;2023-06-14T14:12:23;3.75;;;2.60;;
60492;SDS011;46341;51.290;-2.474;2023-06-14T14:14:51;2.55;;;2.35;;
60492;SDS011;46341;51.290;-2.474;2023-06-14T14:17:17;4.20;;;2.70;;
60492;SDS011;46341;51.290;-2.474;2023-06-14T14:19:44;4.63;;;2.70;;
60492;SDS011;46341;51.290;-2.474;2023-06-14T14:22:11;2.97;;;2.67;;
60492;SDS011;46341;51.290;-2.474;2023-06-14T14:24:37;4.55;;;2.70;;
60492;SDS011;46341;51.290;-2.474;2023-06-14T14:27:04;3.15;;;2.53;;
60492;SDS011;46341;51.290;-2.474;2023-06-14T14:29:30;3.97;;;2.40;;
60492;SDS011;46341;51.290;-2.474;2023-06-14T14:31:57;4.75;;;2.97;;
60492;SDS011;46341;51.290;-2.474;2023-06-14T14:34:24;3.00;;;2.80;;
60492;SDS011;46341;51.290;-2.474;2023-06-14T14:36:51;3.00;;;2.70;;
60492;SDS011;46341;51.290;-2.474;2023-06-14T14:39:17;2.78;;;2.58;;
60492;SDS011;46341;51.290;-2.474;2023-06-14T14:41:43;5.72;;;2.47;;
60492;SDS011;46341;51.290;-2.474;2023-06-14T14:44:10;3.33;;;2.55;;
60492;SDS011;46341;51.290;-2.474;2023-06-14T14:46:37;4.43;;;2.47;;
60492;SDS011;46341;51.290;-2.474;2023-06-14T14:49:04;3.20;;;2.60;;
60492;SDS011;46341;51.290;-2.474;2023-06-14T14:51:30;3.45;;;2.40;;
60492;SDS011;46341;51.290;-2.474;2023-06-14T14:53:57;3.33;;;2.50;;
60492;SDS011;46341;51.290;-2.474;2023-06-14T14:56:23;3.25;;;2.95;;